Airport ID:1G3
Update Time (UTC):27/09/2022 11:57
Wind Speed (Knots):9
Wind Direction (Magnetic):250
Temperature (°C):9
Dew Point (°C):7
Humidity (%):89
Altimeter (inHg):29.88
Density Altitude (Feet):
Visibility:10+
Clouds (Hundreds of feet):***
Present Weather:
METAR:METAR 1G3 271155Z AUTO 24010KT 10SM 09/07 A2988 RMK A01

The data displayed is for advisory purposes only and is not to be used for flight planning or operations.